Terminal Aerodrome Forecast
Issued by NWS Upton, NY

Home | Current Version | Previous Version | Text Only | Print | Product List | Glossary On
Versions: 1 2 3 4 5 6 7 8 9 10 11 12 13 14 15 16 17 18 19 20 21 22 23 24 25 26
000
FTUS41 KOKX 281100 RRA
TAFLGA
TAF
KLGA 281141Z 2812/2912 19008KT P6SM BKN025
      TEMPO 2812/2813 BKN015
     FM281400 23010KT P6SM SCT025 SCT120
     FM281600 24014G20KT P6SM SCT050
     FM281900 25019G26KT P6SM SCT050
     FM290000 29018G26KT P6SM FEW050
     FM290700 30014G20KT P6SM SKC
     FM291000 30010KT P6SM SKC=

USA.gov is the U.S. government's official web portal to all federal, state and local government web resources and services.